createdAt,value
2019-05-28T00:00:31.967Z,0.00
2019-05-28T00:01:31.960Z,0.00
2019-05-28T00:02:31.967Z,0.00
2019-05-28T00:03:32.000Z,0.00
2019-05-28T00:04:31.931Z,0.00
2019-05-28T00:05:31.936Z,0.00
2019-05-28T00:06:31.913Z,0.00
2019-05-28T00:07:31.898Z,0.00
2019-05-28T00:08:31.896Z,0.00
2019-05-28T00:09:31.887Z,0.00
2019-05-28T00:10:31.867Z,0.00
2019-05-28T00:11:31.850Z,0.00
2019-05-28T00:12:31.872Z,0.00
2019-05-28T00:13:31.826Z,0.00
2019-05-28T00:14:31.827Z,0.00
2019-05-28T00:15:31.839Z,0.00
2019-05-28T00:16:31.799Z,0.00
2019-05-28T00:17:31.817Z,0.00
2019-05-28T00:18:31.787Z,0.00
2019-05-28T00:19:31.767Z,0.00
2019-05-28T00:20:31.782Z,0.00
2019-05-28T00:21:31.743Z,0.00
2019-05-28T00:22:31.745Z,0.00
2019-05-28T00:23:31.723Z,0.00
2019-05-28T00:24:31.735Z,0.00
2019-05-28T00:25:31.717Z,0.00
2019-05-28T00:26:31.692Z,0.00
2019-05-28T00:27:31.690Z,0.00
2019-05-28T00:28:31.665Z,0.00
2019-05-28T00:29:31.680Z,0.00
2019-05-28T00:30:31.658Z,0.00
2019-05-28T00:31:31.638Z,0.00
2019-05-28T00:32:31.629Z,0.00
2019-05-28T00:33:31.681Z,0.00
2019-05-28T00:34:31.609Z,0.00
2019-05-28T00:35:31.590Z,0.00
2019-05-28T00:36:31.588Z,0.00
2019-05-28T00:37:31.579Z,0.00
2019-05-28T00:38:31.568Z,0.00
2019-05-28T00:39:31.547Z,0.00
2019-05-28T00:40:31.555Z,0.00
2019-05-28T00:41:31.537Z,0.00
2019-05-28T00:42:31.535Z,0.00
2019-05-28T00:43:31.516Z,0.00
2019-05-28T00:44:31.504Z,0.00
2019-05-28T00:45:31.495Z,0.00
2019-05-28T00:46:31.474Z,0.00
2019-05-28T00:47:31.465Z,0.00
2019-05-28T00:48:31.466Z,0.00
2019-05-28T00:49:31.451Z,0.00
2019-05-28T00:50:31.505Z,0.00
2019-05-28T00:51:31.426Z,0.00
2019-05-28T00:52:31.420Z,0.00
2019-05-28T00:53:31.405Z,0.00
2019-05-28T00:54:31.391Z,0.00
2019-05-28T00:55:31.411Z,0.00
2019-05-28T00:56:31.371Z,0.00
2019-05-28T00:57:31.361Z,0.00
2019-05-28T00:58:31.380Z,0.00
2019-05-28T00:59:31.339Z,0.00
2019-05-28T01:00:36.857Z,0.00
2019-05-28T01:01:32.319Z,0.00
2019-05-28T01:02:31.310Z,0.00
2019-05-28T01:03:31.295Z,0.00
2019-05-28T01:04:31.278Z,0.00
2019-05-28T01:05:31.290Z,0.00
2019-05-28T01:06:31.267Z,0.00
2019-05-28T01:07:31.266Z,0.00
2019-05-28T01:08:31.246Z,0.00
2019-05-28T01:09:31.235Z,0.00
2019-05-28T01:10:31.235Z,0.00
2019-05-28T01:11:31.205Z,0.00
2019-05-28T01:12:31.215Z,0.00
2019-05-28T01:13:31.184Z,0.00
2019-05-28T01:14:31.185Z,0.00
2019-05-28T01:15:31.174Z,0.00
2019-05-28T01:16:31.175Z,0.00
2019-05-28T01:17:31.142Z,0.00
2019-05-28T01:18:31.140Z,0.00
2019-05-28T01:19:31.134Z,0.00
2019-05-28T01:20:31.131Z,0.00
2019-05-28T01:21:31.101Z,0.00
2019-05-28T01:22:31.513Z,0.00
2019-05-28T01:23:31.087Z,0.00
2019-05-28T01:24:31.071Z,0.00
2019-05-28T01:25:31.079Z,0.00
2019-05-28T01:26:31.069Z,0.00
2019-05-28T01:27:31.040Z,0.00
2019-05-28T01:28:31.038Z,0.00
2019-05-28T01:29:31.020Z,0.00
2019-05-28T01:30:31.030Z,0.00
2019-05-28T01:31:30.997Z,0.00
2019-05-28T01:32:30.994Z,0.00
2019-05-28T01:33:30.983Z,0.00
2019-05-28T01:34:30.968Z,0.00
2019-05-28T01:35:30.978Z,0.00
2019-05-28T01:36:30.945Z,0.00
2019-05-28T01:37:30.941Z,0.00
2019-05-28T01:38:30.926Z,0.00
2019-05-28T01:39:30.924Z,0.00
2019-05-28T01:40:30.914Z,0.00
2019-05-28T01:41:30.902Z,0.00
2019-05-28T01:42:30.884Z,0.00
2019-05-28T01:43:30.863Z,0.00
2019-05-28T01:44:30.863Z,0.00
2019-05-28T01:45:30.863Z,0.00
2019-05-28T01:46:30.843Z,0.00
2019-05-28T01:47:30.835Z,0.00
2019-05-28T01:48:30.820Z,0.00
2019-05-28T01:49:30.800Z,0.00
2019-05-28T01:50:30.809Z,0.00
2019-05-28T01:51:30.791Z,0.00
2019-05-28T01:52:30.780Z,0.00
2019-05-28T01:53:30.759Z,0.00
2019-05-28T01:54:30.769Z,0.00
2019-05-28T01:55:30.746Z,0.00
2019-05-28T01:56:30.737Z,0.00
2019-05-28T01:57:30.718Z,0.00
2019-05-28T01:58:30.717Z,0.00
2019-05-28T01:59:30.716Z,0.00
2019-05-28T02:00:30.697Z,0.00
2019-05-28T02:01:30.677Z,0.00
2019-05-28T02:02:30.667Z,0.00
2019-05-28T02:03:30.655Z,0.00
2019-05-28T02:04:30.654Z,0.00
2019-05-28T02:05:30.637Z,0.00
2019-05-28T02:06:30.683Z,0.00
2019-05-28T02:07:30.613Z,0.00
2019-05-28T02:08:30.604Z,0.00
2019-05-28T02:09:30.615Z,0.00
2019-05-28T02:10:30.633Z,0.00
2019-05-28T02:11:30.586Z,0.00
2019-05-28T02:12:30.595Z,0.00
2019-05-28T02:13:30.580Z,0.00
2019-05-28T02:14:30.564Z,0.00
2019-05-28T02:15:30.557Z,0.00
2019-05-28T02:16:30.524Z,0.00
2019-05-28T02:17:30.509Z,0.00
2019-05-28T02:18:30.500Z,0.00
2019-05-28T02:19:30.501Z,0.00
2019-05-28T02:20:30.489Z,0.00
2019-05-28T02:21:30.469Z,0.00
2019-05-28T02:22:30.458Z,0.00
2019-05-28T02:23:30.457Z,0.00
2019-05-28T02:24:30.438Z,0.00
2019-05-28T02:25:30.437Z,0.00
2019-05-28T02:26:30.427Z,0.00
2019-05-28T02:27:30.400Z,0.00
2019-05-28T02:28:30.386Z,0.00
2019-05-28T02:29:30.379Z,0.00
2019-05-28T02:30:30.399Z,0.00
2019-05-28T02:31:30.366Z,0.00
2019-05-28T02:32:30.354Z,0.00
2019-05-28T02:33:30.336Z,0.00
2019-05-28T02:34:30.327Z,0.00
2019-05-28T02:35:30.324Z,0.00
2019-05-28T02:36:30.305Z,0.00
2019-05-28T02:37:30.296Z,0.00
2019-05-28T02:38:30.294Z,0.00
2019-05-28T02:39:30.271Z,0.00
2019-05-28T02:40:30.283Z,0.00
2019-05-28T02:41:30.250Z,0.00
2019-05-28T02:42:30.249Z,0.00
2019-05-28T02:43:30.241Z,0.00
2019-05-28T02:44:30.221Z,0.00
2019-05-28T02:45:30.240Z,0.00
2019-05-28T02:46:30.204Z,0.00
2019-05-28T02:47:30.200Z,0.00
2019-05-28T02:48:30.180Z,0.00
2019-05-28T02:49:30.169Z,0.00
2019-05-28T02:50:30.168Z,0.00
2019-05-28T02:51:30.156Z,0.00
2019-05-28T02:52:32.022Z,0.00
2019-05-28T02:53:30.130Z,0.00
2019-05-28T02:54:30.115Z,0.00
2019-05-28T02:55:30.106Z,0.00
2019-05-28T02:56:30.105Z,4.00
2019-05-28T02:57:30.088Z,4.00
2019-05-28T02:58:30.076Z,4.00
2019-05-28T02:59:30.067Z,0.00
2019-05-28T03:00:30.055Z,4.00
2019-05-28T03:01:42.946Z,4.00
2019-05-28T03:02:31.033Z,4.00
2019-05-28T03:03:30.029Z,4.00
2019-05-28T03:04:30.013Z,4.00
2019-05-28T03:05:30.003Z,8.00
2019-05-28T03:06:29.991Z,4.00
2019-05-28T03:07:29.989Z,8.00
2019-05-28T03:08:29.969Z,4.00
2019-05-28T03:09:29.953Z,8.00
2019-05-28T03:10:57.640Z,12.00
2019-05-28T03:11:30.939Z,8.00
2019-05-28T03:12:29.949Z,12.00
2019-05-28T03:13:29.916Z,12.00
2019-05-28T03:14:29.906Z,16.00
2019-05-28T03:15:29.892Z,16.00
2019-05-28T03:16:29.881Z,16.00
2019-05-28T03:17:29.895Z,16.00
2019-05-28T03:18:29.859Z,16.00
2019-05-28T03:19:29.846Z,20.00
2019-05-28T03:20:29.859Z,20.00
2019-05-28T03:21:29.826Z,20.00
2019-05-28T03:22:29.825Z,20.00
2019-05-28T03:23:29.806Z,24.00
2019-05-28T03:24:29.805Z,24.00
2019-05-28T03:25:29.786Z,24.00
2019-05-28T03:26:29.785Z,24.00
2019-05-28T03:27:29.774Z,32.00
2019-05-28T03:28:29.774Z,32.00
2019-05-28T03:29:29.744Z,36.00
2019-05-28T03:30:29.775Z,40.00
2019-05-28T03:31:29.738Z,48.00
2019-05-28T03:32:29.722Z,52.00
2019-05-28T03:33:29.708Z,56.00
2019-05-28T03:34:29.692Z,64.00
2019-05-28T03:35:29.684Z,68.00
2019-05-28T03:36:29.670Z,76.00
2019-05-28T03:37:29.671Z,84.00
2019-05-28T03:38:29.661Z,92.00
2019-05-28T03:39:29.639Z,100.00
2019-05-28T03:40:29.619Z,108.00
2019-05-28T03:41:29.610Z,116.00
2019-05-28T03:42:29.615Z,128.00
2019-05-28T03:43:29.608Z,136.00
2019-05-28T03:44:29.600Z,152.00
2019-05-28T03:45:29.576Z,160.00
2019-05-28T03:46:29.560Z,168.00
2019-05-28T03:47:29.548Z,172.00
2019-05-28T03:48:29.566Z,176.00
2019-05-28T03:49:29.535Z,176.00
2019-05-28T03:50:29.515Z,172.00
2019-05-28T03:51:29.514Z,164.00
2019-05-28T03:52:29.504Z,164.00
2019-05-28T03:53:29.513Z,160.00
2019-05-28T03:54:29.476Z,160.00
2019-05-28T03:55:29.464Z,156.00
2019-05-28T03:56:29.454Z,168.00
2019-05-28T03:57:29.446Z,188.00
2019-05-28T03:58:29.462Z,208.00
2019-05-28T03:59:29.424Z,212.00
2019-05-28T04:00:29.412Z,216.00
2019-05-28T04:01:29.412Z,220.00
2019-05-28T04:02:29.391Z,228.00
2019-05-28T04:03:29.401Z,240.00
2019-05-28T04:04:29.370Z,260.00
2019-05-28T04:05:29.361Z,268.00
2019-05-28T04:06:29.364Z,288.00
2019-05-28T04:07:29.358Z,312.00
2019-05-28T04:08:29.358Z,328.00
2019-05-28T04:09:29.318Z,368.00
2019-05-28T04:10:29.354Z,424.00
2019-05-28T04:11:43.819Z,456.00
2019-05-28T04:12:30.276Z,464.00
2019-05-28T04:13:29.298Z,472.00
2019-05-28T04:14:29.268Z,484.00
2019-05-28T04:15:29.255Z,488.00
2019-05-28T04:16:29.258Z,500.00
2019-05-28T04:17:29.241Z,488.00
2019-05-28T04:18:29.240Z,472.00
2019-05-28T04:19:29.234Z,444.00
2019-05-28T04:20:29.204Z,364.00
2019-05-28T04:21:29.193Z,260.00
2019-05-28T04:22:29.184Z,200.00
2019-05-28T04:23:29.176Z,180.00
2019-05-28T04:24:29.169Z,180.00
2019-05-28T04:25:29.150Z,164.00
2019-05-28T04:26:29.133Z,148.00
2019-05-28T04:27:29.130Z,112.00
2019-05-28T04:28:29.110Z,108.00
2019-05-28T04:29:29.114Z,104.00
2019-05-28T04:30:29.091Z,120.00
2019-05-28T04:31:29.082Z,136.00
2019-05-28T04:32:40.021Z,120.00
2019-05-28T04:33:30.074Z,112.00
2019-05-28T04:34:29.060Z,120.00
2019-05-28T04:35:29.059Z,136.00
2019-05-28T04:36:29.058Z,156.00
2019-05-28T04:37:29.019Z,196.00
2019-05-28T04:38:29.017Z,212.00
2019-05-28T04:39:29.015Z,236.00
2019-05-28T04:40:29.007Z,328.00
2019-05-28T04:41:28.976Z,288.00
2019-05-28T04:42:28.971Z,296.00
2019-05-28T04:43:28.964Z,236.00
2019-05-28T04:44:29.496Z,196.00
2019-05-28T04:45:28.935Z,196.00
2019-05-28T04:46:28.943Z,160.00
2019-05-28T04:47:28.973Z,140.00
2019-05-28T04:48:28.904Z,136.00
2019-05-28T04:49:28.925Z,128.00
2019-05-28T04:50:28.894Z,136.00
2019-05-28T04:51:28.892Z,152.00
2019-05-28T04:52:30.840Z,148.00
2019-05-28T04:53:28.851Z,144.00
2019-05-28T04:54:28.833Z,144.00
2019-05-28T04:55:28.823Z,156.00
2019-05-28T04:56:28.821Z,124.00
2019-05-28T04:57:28.810Z,112.00
2019-05-28T04:58:28.801Z,128.00
2019-05-28T04:59:28.787Z,144.00
2019-05-28T05:00:28.771Z,156.00
2019-05-28T05:01:28.769Z,172.00
2019-05-28T05:02:28.748Z,172.00
2019-05-28T05:03:28.739Z,168.00
2019-05-28T05:04:28.728Z,140.00
2019-05-28T05:05:28.731Z,140.00
2019-05-28T05:06:28.706Z,132.00
2019-05-28T05:07:28.726Z,160.00
2019-05-28T05:08:28.685Z,184.00
2019-05-28T05:09:28.679Z,148.00
2019-05-28T05:10:28.684Z,132.00
2019-05-28T05:11:28.661Z,180.00
2019-05-28T05:12:28.646Z,196.00
2019-05-28T05:13:28.636Z,228.00
2019-05-28T05:14:28.970Z,220.00
2019-05-28T05:15:28.643Z,196.00
2019-05-28T05:16:28.609Z,204.00
2019-05-28T05:17:28.593Z,212.00
2019-05-28T05:18:28.582Z,232.00
2019-05-28T05:19:28.573Z,272.00
2019-05-28T05:20:28.570Z,292.00
2019-05-28T05:21:28.545Z,264.00
2019-05-28T05:22:28.544Z,184.00
2019-05-28T05:23:28.530Z,184.00
2019-05-28T05:24:28.509Z,188.00
2019-05-28T05:25:28.500Z,204.00
2019-05-28T05:26:28.488Z,208.00
2019-05-28T05:27:28.493Z,216.00
2019-05-28T05:28:28.467Z,260.00
2019-05-28T05:29:28.477Z,240.00
2019-05-28T05:30:28.461Z,212.00
2019-05-28T05:31:28.443Z,260.00
2019-05-28T05:32:28.445Z,296.00
2019-05-28T05:33:28.415Z,344.00
2019-05-28T05:34:28.410Z,300.00
2019-05-28T05:35:28.404Z,312.00
2019-05-28T05:36:28.385Z,312.00
2019-05-28T05:37:28.384Z,300.00
2019-05-28T05:38:28.362Z,380.00
2019-05-28T05:39:28.369Z,408.00
2019-05-28T05:40:28.346Z,364.00
2019-05-28T05:41:28.345Z,460.00
2019-05-28T05:42:28.319Z,540.00
2019-05-28T05:43:28.322Z,536.00
2019-05-28T05:44:28.310Z,504.00
2019-05-28T05:45:28.290Z,488.00
2019-05-28T05:46:28.284Z,452.00
2019-05-28T05:47:28.269Z,424.00
2019-05-28T05:48:28.271Z,492.00
2019-05-28T05:49:28.244Z,492.00
2019-05-28T05:50:28.239Z,496.00
2019-05-28T05:51:28.490Z,516.00
2019-05-28T05:52:28.418Z,504.00
2019-05-28T05:53:28.218Z,488.00
2019-05-28T05:54:28.208Z,492.00
2019-05-28T05:55:28.188Z,504.00
2019-05-28T05:56:28.177Z,516.00
2019-05-28T05:57:28.166Z,520.00
2019-05-28T05:58:28.169Z,540.00
2019-05-28T05:59:28.136Z,520.00
2019-05-28T06:00:28.145Z,512.00
2019-05-28T06:01:28.143Z,504.00
2019-05-28T06:02:28.104Z,492.00
2019-05-28T06:03:39.899Z,500.00
2019-05-28T06:04:29.085Z,496.00
2019-05-28T06:05:28.102Z,492.00
2019-05-28T06:06:28.061Z,500.00
2019-05-28T06:07:28.074Z,520.00
2019-05-28T06:08:28.042Z,524.00
2019-05-28T06:09:28.030Z,532.00
2019-05-28T06:10:28.030Z,532.00
2019-05-28T06:11:28.003Z,544.00
2019-05-28T06:12:27.993Z,552.00
2019-05-28T06:13:27.991Z,556.00
2019-05-28T06:14:27.997Z,548.00
2019-05-28T06:15:27.959Z,536.00
2019-05-28T06:16:27.975Z,528.00
2019-05-28T06:17:27.945Z,520.00
2019-05-28T06:18:27.966Z,516.00
2019-05-28T06:19:27.927Z,524.00
2019-05-28T06:20:27.916Z,536.00
2019-05-28T06:21:27.920Z,544.00
2019-05-28T06:22:27.895Z,552.00
2019-05-28T06:23:27.878Z,584.00
2019-05-28T06:24:27.874Z,592.00
2019-05-28T06:25:27.872Z,596.00
2019-05-28T06:26:27.887Z,584.00
2019-05-28T06:27:27.853Z,576.00
2019-05-28T06:28:27.861Z,608.00
2019-05-28T06:29:27.813Z,624.00
2019-05-28T06:30:27.889Z,640.00
2019-05-28T06:31:27.814Z,648.00
2019-05-28T06:32:27.787Z,664.00
2019-05-28T06:33:27.770Z,680.00
2019-05-28T06:34:27.751Z,704.00
2019-05-28T06:35:27.760Z,712.00
2019-05-28T06:36:27.807Z,740.00
2019-05-28T06:37:27.730Z,752.00
2019-05-28T06:38:27.739Z,764.00
2019-05-28T06:39:27.710Z,796.00
2019-05-28T06:40:27.711Z,800.00
2019-05-28T06:41:27.718Z,816.00
2019-05-28T06:42:27.678Z,820.00
2019-05-28T06:43:27.673Z,808.00
2019-05-28T06:44:27.781Z,776.00
2019-05-28T06:45:27.663Z,796.00
2019-05-28T06:46:27.631Z,808.00
2019-05-28T06:47:27.615Z,832.00
2019-05-28T06:48:27.623Z,852.00
2019-05-28T06:49:27.601Z,840.00
2019-05-28T06:50:27.604Z,812.00
2019-05-28T06:51:27.584Z,892.00
2019-05-28T06:52:27.575Z,948.00
2019-05-28T06:53:27.553Z,1028.00
2019-05-28T06:54:27.555Z,1032.00
2019-05-28T06:55:27.536Z,1088.00
2019-05-28T06:56:27.552Z,1140.00
2019-05-28T06:57:27.512Z,1116.00
2019-05-28T06:58:38.941Z,1160.00
2019-05-28T06:59:28.481Z,1236.00
2019-05-28T07:00:27.530Z,1260.00
2019-05-28T07:01:28.557Z,1304.00
2019-05-28T07:02:27.463Z,1276.00
2019-05-28T07:03:27.439Z,1292.00
2019-05-28T07:04:32.878Z,1380.00
2019-05-28T07:05:28.438Z,1444.00
2019-05-28T07:06:27.417Z,1484.00
2019-05-28T07:07:27.402Z,1444.00
2019-05-28T07:08:27.400Z,1200.00
2019-05-28T07:09:27.376Z,1276.00
2019-05-28T07:10:27.378Z,1448.00
2019-05-28T07:11:27.369Z,1464.00
2019-05-28T07:12:27.349Z,1488.00
2019-05-28T07:13:27.337Z,1496.00
2019-05-28T07:14:27.337Z,1512.00
2019-05-28T07:15:27.314Z,1588.00
2019-05-28T07:16:27.312Z,1604.00
2019-05-28T07:17:27.318Z,1680.00
2019-05-28T07:18:27.558Z,1744.00
2019-05-28T07:19:27.282Z,1780.00
2019-05-28T07:20:27.264Z,1736.00
2019-05-28T07:21:27.279Z,1652.00
2019-05-28T07:22:27.244Z,1652.00
2019-05-28T07:23:27.231Z,1720.00
2019-05-28T07:24:27.220Z,1796.00
2019-05-28T07:25:27.218Z,1816.00
2019-05-28T07:26:27.209Z,1752.00
2019-05-28T07:27:27.199Z,1736.00
2019-05-28T07:28:27.188Z,1736.00
2019-05-28T07:29:27.175Z,1716.00
2019-05-28T07:30:27.179Z,1664.00
2019-05-28T07:31:27.157Z,1732.00
2019-05-28T07:32:27.136Z,1780.00
2019-05-28T07:33:27.143Z,1672.00
2019-05-28T07:34:30.689Z,1716.00
2019-05-28T07:35:27.097Z,1716.00
2019-05-28T07:36:27.116Z,1616.00
2019-05-28T07:37:27.086Z,1764.00
2019-05-28T07:38:27.075Z,2052.00
2019-05-28T07:39:27.084Z,2264.00
2019-05-28T07:40:31.706Z,2256.00
2019-05-28T07:41:28.034Z,2324.00
2019-05-28T07:42:32.563Z,2404.00
2019-05-28T07:43:28.012Z,2448.00
2019-05-28T07:44:27.031Z,2328.00
2019-05-28T07:45:26.993Z,2120.00
2019-05-28T07:46:26.991Z,2248.00
2019-05-28T07:47:26.980Z,2396.00
2019-05-28T07:48:26.961Z,2540.00
2019-05-28T07:49:26.980Z,2764.00
2019-05-28T07:50:26.950Z,2844.00
2019-05-28T07:51:26.928Z,2668.00
2019-05-28T07:52:26.918Z,2452.00
2019-05-28T07:53:39.475Z,2440.00
2019-05-28T07:54:27.916Z,2120.00
2019-05-28T07:55:26.893Z,1748.00
2019-05-28T07:56:26.886Z,1692.00
2019-05-28T07:57:26.869Z,1952.00
2019-05-28T07:58:26.868Z,2200.00
2019-05-28T07:59:26.844Z,2276.00
2019-05-28T08:00:26.836Z,1900.00
2019-05-28T08:01:26.824Z,1552.00
2019-05-28T08:02:26.828Z,1448.00
2019-05-28T08:03:26.834Z,1532.00
2019-05-28T08:04:26.783Z,1620.00
2019-05-28T08:05:26.782Z,1728.00
2019-05-28T08:06:26.773Z,1752.00
2019-05-28T08:07:26.761Z,1612.00
2019-05-28T08:08:26.766Z,1752.00
2019-05-28T08:09:26.743Z,1832.00
2019-05-28T08:10:29.334Z,1540.00
2019-05-28T08:11:26.729Z,1296.00
2019-05-28T08:12:26.714Z,1360.00
2019-05-28T08:13:39.653Z,1660.00
2019-05-28T08:14:27.690Z,2004.00
2019-05-28T08:15:26.687Z,2376.00
2019-05-28T08:16:26.669Z,2688.00
2019-05-28T08:17:26.648Z,2908.00
2019-05-28T08:18:26.639Z,2624.00
2019-05-28T08:19:26.656Z,1836.00
2019-05-28T08:20:26.626Z,1904.00
2019-05-28T08:21:26.630Z,2120.00
2019-05-28T08:22:40.869Z,2212.00
2019-05-28T08:23:27.585Z,2624.00
2019-05-28T08:24:26.586Z,2976.00
2019-05-28T08:25:45.612Z,3804.00
2019-05-28T08:26:27.554Z,4592.00
2019-05-28T08:27:26.558Z,4692.00
2019-05-28T08:28:26.542Z,4876.00
2019-05-28T08:29:26.543Z,4076.00
2019-05-28T08:30:26.525Z,4104.00
2019-05-28T08:31:26.502Z,3748.00
2019-05-28T08:32:26.493Z,3780.00
2019-05-28T08:33:26.497Z,4064.00
2019-05-28T08:34:26.471Z,4508.00
2019-05-28T08:35:26.483Z,4548.00
2019-05-28T08:36:26.453Z,4516.00
2019-05-28T08:37:26.430Z,4484.00
2019-05-28T08:38:26.433Z,4476.00
2019-05-28T08:39:26.416Z,3960.00
2019-05-28T08:40:26.422Z,2944.00
2019-05-28T08:41:27.755Z,2508.00
2019-05-28T08:42:26.385Z,3020.00
2019-05-28T08:43:26.367Z,3260.00
2019-05-28T08:44:26.401Z,2620.00
2019-05-28T08:45:26.366Z,2288.00
2019-05-28T08:46:26.346Z,2392.00
2019-05-28T08:47:26.337Z,2744.00
2019-05-28T08:48:26.327Z,2472.00
2019-05-28T08:49:26.306Z,2300.00
2019-05-28T08:50:34.649Z,1800.00
2019-05-28T08:51:27.290Z,1404.00
2019-05-28T08:52:26.273Z,1184.00
2019-05-28T08:53:26.340Z,1176.00
2019-05-28T08:54:26.277Z,1480.00
2019-05-28T08:55:26.253Z,1956.00
2019-05-28T08:56:26.232Z,2400.00
2019-05-28T08:57:26.246Z,2668.00
2019-05-28T08:58:26.220Z,2560.00
2019-05-28T08:59:26.214Z,1880.00
2019-05-28T09:00:26.211Z,1640.00
2019-05-28T09:01:26.181Z,2168.00
2019-05-28T09:02:28.412Z,3012.00
2019-05-28T09:03:26.162Z,3376.00
2019-05-28T09:04:26.149Z,3356.00
2019-05-28T09:05:26.907Z,3344.00
2019-05-28T09:06:27.191Z,3536.00
2019-05-28T09:07:26.129Z,3380.00
2019-05-28T09:08:38.312Z,3180.00
2019-05-28T09:09:27.088Z,3524.00
2019-05-28T09:10:26.097Z,4212.00
2019-05-28T09:11:26.076Z,4888.00
2019-05-28T09:12:26.066Z,5200.00
2019-05-28T09:13:26.806Z,5108.00
2019-05-28T09:14:26.051Z,4792.00
2019-05-28T09:15:26.048Z,4524.00
2019-05-28T09:16:26.015Z,4224.00
2019-05-28T09:17:26.005Z,4300.00
2019-05-28T09:18:26.004Z,4632.00
2019-05-28T09:19:25.984Z,4600.00
2019-05-28T09:20:25.993Z,4472.00
2019-05-28T09:21:25.966Z,4476.00
2019-05-28T09:22:26.596Z,4284.00
2019-05-28T09:23:25.956Z,4044.00
2019-05-28T09:24:27.866Z,3928.00
2019-05-28T09:25:25.929Z,3856.00
2019-05-28T09:26:25.920Z,4416.00
2019-05-28T09:27:25.913Z,5100.00
2019-05-28T09:28:30.720Z,4812.00
2019-05-28T09:29:26.880Z,4680.00
2019-05-28T09:30:25.879Z,4584.00
2019-05-28T09:31:25.868Z,3924.00
2019-05-28T09:32:25.848Z,3216.00
2019-05-28T09:33:25.840Z,3184.00
2019-05-28T09:34:25.848Z,3400.00
2019-05-28T09:35:41.237Z,4056.00
2019-05-28T09:36:26.849Z,5232.00
2019-05-28T09:37:25.804Z,6372.00
2019-05-28T09:38:25.786Z,7112.00
2019-05-28T09:39:25.779Z,6332.00
2019-05-28T09:40:25.766Z,5356.00
2019-05-28T09:41:25.775Z,5424.00
2019-05-28T09:42:25.750Z,6808.00
2019-05-28T09:43:25.760Z,8988.00
2019-05-28T09:44:25.724Z,11548.00
2019-05-28T09:45:25.714Z,11704.00
2019-05-28T09:46:25.728Z,11156.00
2019-05-28T09:47:25.692Z,10812.00
2019-05-28T09:48:25.684Z,10396.00
2019-05-28T09:49:25.675Z,10080.00
2019-05-28T09:50:30.867Z,9976.00
2019-05-28T09:51:26.663Z,9892.00
2019-05-28T09:52:25.643Z,9904.00
2019-05-28T09:53:25.629Z,10260.00
2019-05-28T09:54:25.663Z,10876.00
2019-05-28T09:55:25.608Z,11400.00
2019-05-28T09:56:25.599Z,11748.00
2019-05-28T09:57:25.612Z,11924.00
2019-05-28T09:58:25.591Z,11980.00
2019-05-28T09:59:40.364Z,12084.00
2019-05-28T10:00:26.569Z,12136.00
2019-05-28T10:01:25.547Z,12348.00
2019-05-28T10:02:25.537Z,12552.00
2019-05-28T10:03:25.546Z,12408.00
2019-05-28T10:04:44.141Z,11716.00
2019-05-28T10:05:26.516Z,11688.00
2019-05-28T10:06:36.863Z,11164.00
2019-05-28T10:07:26.475Z,10032.00
2019-05-28T10:08:25.464Z,9468.00
2019-05-28T10:09:25.520Z,9200.00
2019-05-28T10:10:25.452Z,8900.00
2019-05-28T10:11:25.435Z,8456.00
2019-05-28T10:12:25.423Z,8276.00
2019-05-28T10:13:38.204Z,7532.00
2019-05-28T10:14:26.530Z,6972.00
2019-05-28T10:15:25.425Z,7328.00
2019-05-28T10:16:25.382Z,7204.00
2019-05-28T10:17:25.413Z,7004.00
2019-05-28T10:18:25.362Z,6864.00
2019-05-28T10:19:25.365Z,6596.00
2019-05-28T10:20:25.362Z,6224.00
2019-05-28T10:21:25.333Z,6092.00
2019-05-28T10:22:25.322Z,5908.00
2019-05-28T10:23:25.309Z,5988.00
2019-05-28T10:24:25.321Z,6376.00
2019-05-28T10:25:26.228Z,7176.00
2019-05-28T10:26:25.271Z,7400.00
2019-05-28T10:27:25.259Z,7496.00
2019-05-28T10:28:25.380Z,7540.00
2019-05-28T10:29:25.258Z,7668.00
2019-05-28T10:30:25.230Z,7852.00
2019-05-28T10:31:25.218Z,8016.00
2019-05-28T10:32:25.206Z,8384.00
2019-05-28T10:33:25.226Z,8420.00
2019-05-28T10:34:25.205Z,8296.00
2019-05-28T10:35:25.177Z,7672.00
2019-05-28T10:36:36.185Z,6868.00
2019-05-28T10:37:26.154Z,6952.00
2019-05-28T10:38:25.147Z,7172.00
2019-05-28T10:39:25.157Z,7432.00
2019-05-28T10:40:25.125Z,7116.00
2019-05-28T10:41:25.115Z,7068.00
2019-05-28T10:42:25.163Z,7228.00
2019-05-28T10:43:25.093Z,7308.00
2019-05-28T10:44:25.092Z,7348.00
2019-05-28T10:45:25.072Z,7328.00
2019-05-28T10:46:25.071Z,7252.00
2019-05-28T10:47:25.055Z,7160.00
2019-05-28T10:48:25.061Z,7144.00
2019-05-28T10:49:25.036Z,7328.00
2019-05-28T10:50:25.042Z,7472.00
2019-05-28T10:51:25.002Z,7612.00
2019-05-28T10:52:25.009Z,7772.00
2019-05-28T10:53:24.988Z,7964.00
2019-05-28T10:54:25.906Z,8084.00
2019-05-28T10:55:24.977Z,8136.00
2019-05-28T10:56:25.874Z,8256.00
2019-05-28T10:57:24.957Z,8412.00
2019-05-28T10:58:24.936Z,8760.00
2019-05-28T10:59:24.936Z,9016.00
2019-05-28T11:00:24.916Z,9148.00
2019-05-28T11:01:24.895Z,9284.00
2019-05-28T11:02:24.892Z,9412.00
2019-05-28T11:03:24.881Z,9472.00
2019-05-28T11:04:24.876Z,9496.00
2019-05-28T11:05:24.866Z,9532.00
2019-05-28T11:06:24.850Z,9640.00
2019-05-28T11:07:24.854Z,9752.00
2019-05-28T11:08:24.826Z,9732.00
2019-05-28T11:09:24.826Z,9552.00
2019-05-28T11:10:25.152Z,9104.00
2019-05-28T11:11:24.792Z,8488.00
2019-05-28T11:12:24.791Z,7800.00
2019-05-28T11:13:24.775Z,7256.00
2019-05-28T11:14:24.781Z,7104.00
2019-05-28T11:15:24.765Z,7248.00
2019-05-28T11:16:24.742Z,7720.00
2019-05-28T11:17:24.737Z,8108.00
2019-05-28T11:18:24.721Z,8316.00
2019-05-28T11:19:24.711Z,8652.00
2019-05-28T11:20:24.701Z,8432.00
2019-05-28T11:21:24.681Z,7860.00
2019-05-28T11:22:24.688Z,7488.00
2019-05-28T11:23:24.662Z,7396.00
2019-05-28T11:24:24.665Z,7292.00
2019-05-28T11:25:24.655Z,7272.00
2019-05-28T11:26:24.637Z,7332.00
2019-05-28T11:27:24.641Z,7548.00
2019-05-28T11:28:24.608Z,7784.00
2019-05-28T11:29:24.607Z,8012.00
2019-05-28T11:30:24.600Z,8492.00
2019-05-28T11:31:24.570Z,8792.00
2019-05-28T11:32:24.568Z,9060.00
2019-05-28T11:33:24.568Z,9200.00
2019-05-28T11:34:24.548Z,9380.00
2019-05-28T11:35:24.547Z,9664.00
2019-05-28T11:36:24.546Z,9892.00
2019-05-28T11:37:24.508Z,9900.00
2019-05-28T11:38:24.506Z,9908.00
2019-05-28T11:39:24.485Z,9900.00
2019-05-28T11:40:24.495Z,9892.00
2019-05-28T11:41:40.996Z,9860.00
2019-05-28T11:42:25.470Z,9852.00
2019-05-28T11:43:24.461Z,9860.00
2019-05-28T11:44:24.434Z,9972.00
2019-05-28T11:45:24.443Z,9860.00
2019-05-28T11:46:24.413Z,9756.00
2019-05-28T11:47:25.103Z,9808.00
2019-05-28T11:48:25.331Z,9776.00
2019-05-28T11:49:24.381Z,9676.00
2019-05-28T11:50:24.381Z,9568.00
2019-05-28T11:51:24.370Z,9488.00
2019-05-28T11:52:25.190Z,9288.00
2019-05-28T11:53:24.365Z,9320.00
2019-05-28T11:54:24.362Z,9440.00
2019-05-28T11:55:24.316Z,9580.00
2019-05-28T11:56:24.306Z,9748.00
2019-05-28T11:57:24.307Z,9856.00
2019-05-28T11:58:24.305Z,9732.00
2019-05-28T11:59:24.277Z,9372.00
2019-05-28T12:00:24.277Z,9252.00
2019-05-28T12:01:34.475Z,9312.00
2019-05-28T12:02:25.241Z,9440.00
2019-05-28T12:03:24.227Z,9504.00
2019-05-28T12:04:24.215Z,9492.00
2019-05-28T12:05:24.227Z,9684.00
2019-05-28T12:06:24.216Z,9624.00
2019-05-28T12:07:26.375Z,9308.00
2019-05-28T12:08:24.173Z,9116.00
2019-05-28T12:09:24.177Z,9200.00
2019-05-28T12:10:24.186Z,9160.00
2019-05-28T12:11:24.146Z,9360.00
2019-05-28T12:12:24.136Z,9584.00
2019-05-28T12:13:24.214Z,9788.00
2019-05-28T12:14:24.115Z,9500.00
2019-05-28T12:15:24.114Z,9252.00
2019-05-28T12:16:24.121Z,8980.00
2019-05-28T12:17:40.525Z,8944.00
2019-05-28T12:18:25.061Z,8980.00
2019-05-28T12:19:24.060Z,8896.00
2019-05-28T12:20:24.051Z,8668.00
2019-05-28T12:21:24.035Z,8484.00
2019-05-28T12:22:24.074Z,8744.00
2019-05-28T12:23:24.027Z,8992.00
2019-05-28T12:24:28.035Z,8708.00
2019-05-28T12:25:24.024Z,8880.00
2019-05-28T12:26:24.036Z,9540.00
2019-05-28T12:27:23.979Z,9660.00
2019-05-28T12:28:36.936Z,9560.00
2019-05-28T12:29:24.957Z,9892.00
2019-05-28T12:30:23.948Z,10100.00